sensor_id;sensor_type;location;lat;lon;timestamp;temperature;humidity
13332;DHT22;6735;51.456;12.626;2022-08-20T00:02:23;20.40;86.20
13332;DHT22;6735;51.456;12.626;2022-08-20T00:04:49;20.30;86.10
13332;DHT22;6735;51.456;12.626;2022-08-20T00:07:15;20.40;86.00
13332;DHT22;6735;51.456;12.626;2022-08-20T00:09:41;20.30;86.10
13332;DHT22;6735;51.456;12.626;2022-08-20T00:12:08;20.30;86.10
13332;DHT22;6735;51.456;12.626;2022-08-20T00:14:34;20.30;86.20
13332;DHT22;6735;51.456;12.626;2022-08-20T00:17:01;20.30;86.20
13332;DHT22;6735;51.456;12.626;2022-08-20T00:19:27;20.30;86.30
13332;DHT22;6735;51.456;12.626;2022-08-20T00:21:52;20.30;86.50
13332;DHT22;6735;51.456;12.626;2022-08-20T00:24:18;20.20;86.40
13332;DHT22;6735;51.456;12.626;2022-08-20T00:26:43;20.20;86.70
13332;DHT22;6735;51.456;12.626;2022-08-20T00:29:09;20.20;86.70
13332;DHT22;6735;51.456;12.626;2022-08-20T00:31:34;20.20;86.50
13332;DHT22;6735;51.456;12.626;2022-08-20T00:33:59;20.20;86.60
13332;DHT22;6735;51.456;12.626;2022-08-20T00:36:25;20.20;86.80
13332;DHT22;6735;51.456;12.626;2022-08-20T00:38:50;20.20;86.60
13332;DHT22;6735;51.456;12.626;2022-08-20T00:41:20;20.20;86.60
13332;DHT22;6735;51.456;12.626;2022-08-20T00:44:05;20.20;86.80
13332;DHT22;6735;51.456;12.626;2022-08-20T00:46:32;20.20;86.60
13332;DHT22;6735;51.456;12.626;2022-08-20T00:48:59;20.20;86.80
13332;DHT22;6735;51.456;12.626;2022-08-20T00:51:36;20.10;86.70
13332;DHT22;6735;51.456;12.626;2022-08-20T00:54:40;20.20;86.80
13332;DHT22;6735;51.456;12.626;2022-08-20T00:57:24;20.20;86.90
13332;DHT22;6735;51.456;12.626;2022-08-20T00:59:51;20.20;86.90
13332;DHT22;6735;51.456;12.626;2022-08-20T01:02:21;20.20;87.00
13332;DHT22;6735;51.456;12.626;2022-08-20T01:04:47;20.20;86.90
13332;DHT22;6735;51.456;12.626;2022-08-20T01:07:18;20.20;86.90
13332;DHT22;6735;51.456;12.626;2022-08-20T01:09:45;20.20;87.00
13332;DHT22;6735;51.456;12.626;2022-08-20T01:12:12;20.20;87.00
13332;DHT22;6735;51.456;12.626;2022-08-20T01:14:40;20.20;87.10
13332;DHT22;6735;51.456;12.626;2022-08-20T01:17:19;20.20;87.20
13332;DHT22;6735;51.456;12.626;2022-08-20T01:19:54;20.10;87.20
13332;DHT22;6735;51.456;12.626;2022-08-20T01:22:36;20.10;87.10
13332;DHT22;6735;51.456;12.626;2022-08-20T01:28:12;20.10;87.40
13332;DHT22;6735;51.456;12.626;2022-08-20T01:30:39;20.10;87.40
13332;DHT22;6735;51.456;12.626;2022-08-20T01:33:05;20.10;87.40
13332;DHT22;6735;51.456;12.626;2022-08-20T01:35:35;20.10;87.50
13332;DHT22;6735;51.456;12.626;2022-08-20T01:38:00;20.10;87.60
13332;DHT22;6735;51.456;12.626;2022-08-20T01:40:39;20.10;87.70
13332;DHT22;6735;51.456;12.626;2022-08-20T01:43:09;20.10;87.80
13332;DHT22;6735;51.456;12.626;2022-08-20T01:45:34;20.10;87.80
13332;DHT22;6735;51.456;12.626;2022-08-20T01:48:01;20.10;87.70
13332;DHT22;6735;51.456;12.626;2022-08-20T01:50:27;20.10;87.70
13332;DHT22;6735;51.456;12.626;2022-08-20T01:53:20;20.10;87.80
13332;DHT22;6735;51.456;12.626;2022-08-20T01:55:48;20.10;87.80
13332;DHT22;6735;51.456;12.626;2022-08-20T01:58:13;20.10;87.80
13332;DHT22;6735;51.456;12.626;2022-08-20T02:00:39;20.10;87.90
13332;DHT22;6735;51.456;12.626;2022-08-20T02:03:05;20.10;88.00
13332;DHT22;6735;51.456;12.626;2022-08-20T02:05:31;20.10;88.00
13332;DHT22;6735;51.456;12.626;2022-08-20T02:07:59;20.10;88.00
13332;DHT22;6735;51.456;12.626;2022-08-20T02:10:25;20.10;88.00
13332;DHT22;6735;51.456;12.626;2022-08-20T02:12:50;20.10;88.10
13332;DHT22;6735;51.456;12.626;2022-08-20T02:15:16;20.10;88.00
13332;DHT22;6735;51.456;12.626;2022-08-20T02:17:42;20.10;88.00
13332;DHT22;6735;51.456;12.626;2022-08-20T02:20:16;20.10;88.10
13332;DHT22;6735;51.456;12.626;2022-08-20T02:22:52;20.10;88.00
13332;DHT22;6735;51.456;12.626;2022-08-20T02:25:20;20.10;88.10
13332;DHT22;6735;51.456;12.626;2022-08-20T02:27:47;20.10;88.10
13332;DHT22;6735;51.456;12.626;2022-08-20T02:30:23;20.10;88.20
13332;DHT22;6735;51.456;12.626;2022-08-20T02:32:49;20.10;88.10
13332;DHT22;6735;51.456;12.626;2022-08-20T02:35:15;20.10;88.20
13332;DHT22;6735;51.456;12.626;2022-08-20T02:37:42;20.10;88.20
13332;DHT22;6735;51.456;12.626;2022-08-20T02:40:11;20.10;88.10
13332;DHT22;6735;51.456;12.626;2022-08-20T02:42:36;20.10;88.20
13332;DHT22;6735;51.456;12.626;2022-08-20T02:45:04;20.10;88.10
13332;DHT22;6735;51.456;12.626;2022-08-20T02:47:30;20.10;88.10
13332;DHT22;6735;51.456;12.626;2022-08-20T02:49:56;20.10;88.10
13332;DHT22;6735;51.456;12.626;2022-08-20T02:52:24;20.00;88.10
13332;DHT22;6735;51.456;12.626;2022-08-20T02:54:49;20.10;88.10
13332;DHT22;6735;51.456;12.626;2022-08-20T02:57:17;20.10;88.10
13332;DHT22;6735;51.456;12.626;2022-08-20T02:59:45;20.10;88.20
13332;DHT22;6735;51.456;12.626;2022-08-20T03:02:11;20.00;88.20
13332;DHT22;6735;51.456;12.626;2022-08-20T03:04:37;20.10;88.20
13332;DHT22;6735;51.456;12.626;2022-08-20T03:07:04;20.10;88.10
13332;DHT22;6735;51.456;12.626;2022-08-20T03:09:30;20.00;88.20
13332;DHT22;6735;51.456;12.626;2022-08-20T03:11:56;20.00;88.10
13332;DHT22;6735;51.456;12.626;2022-08-20T03:14:22;20.00;88.00
13332;DHT22;6735;51.456;12.626;2022-08-20T03:16:48;20.00;88.10
13332;DHT22;6735;51.456;12.626;2022-08-20T03:19:13;20.00;88.10
13332;DHT22;6735;51.456;12.626;2022-08-20T03:21:39;20.00;88.20
13332;DHT22;6735;51.456;12.626;2022-08-20T03:24:05;20.00;88.20
13332;DHT22;6735;51.456;12.626;2022-08-20T03:26:30;20.00;88.10
13332;DHT22;6735;51.456;12.626;2022-08-20T03:28:56;20.00;88.20
13332;DHT22;6735;51.456;12.626;2022-08-20T03:31:21;20.00;88.20
13332;DHT22;6735;51.456;12.626;2022-08-20T03:33:47;19.90;88.10
13332;DHT22;6735;51.456;12.626;2022-08-20T03:36:12;19.90;88.10
13332;DHT22;6735;51.456;12.626;2022-08-20T03:38:38;19.90;88.20
13332;DHT22;6735;51.456;12.626;2022-08-20T03:41:03;19.90;88.40
13332;DHT22;6735;51.456;12.626;2022-08-20T03:43:29;19.90;88.30
13332;DHT22;6735;51.456;12.626;2022-08-20T03:45:55;19.90;88.30
13332;DHT22;6735;51.456;12.626;2022-08-20T03:48:21;19.90;88.40
13332;DHT22;6735;51.456;12.626;2022-08-20T03:50:48;19.90;88.40
13332;DHT22;6735;51.456;12.626;2022-08-20T03:53:14;19.80;88.40
13332;DHT22;6735;51.456;12.626;2022-08-20T03:55:42;19.80;88.40
13332;DHT22;6735;51.456;12.626;2022-08-20T03:58:09;19.80;88.40
13332;DHT22;6735;51.456;12.626;2022-08-20T04:01:02;19.80;88.40
13332;DHT22;6735;51.456;12.626;2022-08-20T04:03:27;19.80;88.40
13332;DHT22;6735;51.456;12.626;2022-08-20T04:05:53;19.80;88.50
13332;DHT22;6735;51.456;12.626;2022-08-20T04:08:24;19.80;88.60
13332;DHT22;6735;51.456;12.626;2022-08-20T04:10:51;19.70;88.60
13332;DHT22;6735;51.456;12.626;2022-08-20T04:13:19;19.70;88.70
13332;DHT22;6735;51.456;12.626;2022-08-20T04:15:45;19.70;88.80
13332;DHT22;6735;51.456;12.626;2022-08-20T04:18:12;19.70;88.90
13332;DHT22;6735;51.456;12.626;2022-08-20T04:20:40;19.60;88.80
13332;DHT22;6735;51.456;12.626;2022-08-20T04:23:06;19.60;88.90
13332;DHT22;6735;51.456;12.626;2022-08-20T04:25:33;19.60;89.00
13332;DHT22;6735;51.456;12.626;2022-08-20T04:28:00;19.70;88.90
13332;DHT22;6735;51.456;12.626;2022-08-20T04:30:27;19.70;88.80
13332;DHT22;6735;51.456;12.626;2022-08-20T04:32:53;19.70;88.90
13332;DHT22;6735;51.456;12.626;2022-08-20T04:35:19;19.70;88.90
13332;DHT22;6735;51.456;12.626;2022-08-20T04:37:46;19.70;88.90
13332;DHT22;6735;51.456;12.626;2022-08-20T04:40:15;19.70;88.80
13332;DHT22;6735;51.456;12.626;2022-08-20T04:42:59;19.80;88.80
13332;DHT22;6735;51.456;12.626;2022-08-20T04:45:25;19.70;88.90
13332;DHT22;6735;51.456;12.626;2022-08-20T04:47:51;19.80;88.90
13332;DHT22;6735;51.456;12.626;2022-08-20T04:50:18;19.80;88.90
13332;DHT22;6735;51.456;12.626;2022-08-20T04:52:43;19.80;88.70
13332;DHT22;6735;51.456;12.626;2022-08-20T04:55:10;19.80;88.70
13332;DHT22;6735;51.456;12.626;2022-08-20T04:57:36;19.80;88.70
13332;DHT22;6735;51.456;12.626;2022-08-20T05:00:09;19.90;88.70
13332;DHT22;6735;51.456;12.626;2022-08-20T05:02:35;19.80;88.60
13332;DHT22;6735;51.456;12.626;2022-08-20T05:05:03;19.90;88.60
13332;DHT22;6735;51.456;12.626;2022-08-20T05:07:28;19.90;88.60
13332;DHT22;6735;51.456;12.626;2022-08-20T05:09:54;19.90;88.60
13332;DHT22;6735;51.456;12.626;2022-08-20T05:12:19;19.90;88.50
13332;DHT22;6735;51.456;12.626;2022-08-20T05:14:45;19.90;88.60
13332;DHT22;6735;51.456;12.626;2022-08-20T05:17:11;19.90;88.70
13332;DHT22;6735;51.456;12.626;2022-08-20T05:19:39;19.90;88.60
13332;DHT22;6735;51.456;12.626;2022-08-20T05:22:06;20.00;88.70
13332;DHT22;6735;51.456;12.626;2022-08-20T05:24:32;20.00;88.60
13332;DHT22;6735;51.456;12.626;2022-08-20T05:27:00;20.00;88.60
13332;DHT22;6735;51.456;12.626;2022-08-20T05:29:26;20.00;88.60
13332;DHT22;6735;51.456;12.626;2022-08-20T05:31:52;20.00;88.60
13332;DHT22;6735;51.456;12.626;2022-08-20T05:34:18;20.00;88.40
13332;DHT22;6735;51.456;12.626;2022-08-20T05:36:45;20.00;88.40
13332;DHT22;6735;51.456;12.626;2022-08-20T05:39:12;20.10;88.40
13332;DHT22;6735;51.456;12.626;2022-08-20T05:41:39;20.00;88.30
13332;DHT22;6735;51.456;12.626;2022-08-20T05:44:05;20.10;88.50
13332;DHT22;6735;51.456;12.626;2022-08-20T05:46:35;20.10;88.30
13332;DHT22;6735;51.456;12.626;2022-08-20T05:49:05;20.10;88.40
13332;DHT22;6735;51.456;12.626;2022-08-20T05:51:31;20.10;88.30
13332;DHT22;6735;51.456;12.626;2022-08-20T05:53:57;20.20;88.30
13332;DHT22;6735;51.456;12.626;2022-08-20T05:56:22;20.20;88.30
13332;DHT22;6735;51.456;12.626;2022-08-20T05:58:48;20.20;88.40
13332;DHT22;6735;51.456;12.626;2022-08-20T06:01:13;20.20;88.30
13332;DHT22;6735;51.456;12.626;2022-08-20T06:03:39;20.20;88.20
13332;DHT22;6735;51.456;12.626;2022-08-20T06:06:23;20.20;88.20
13332;DHT22;6735;51.456;12.626;2022-08-20T06:08:48;20.30;88.20
13332;DHT22;6735;51.456;12.626;2022-08-20T06:11:14;20.30;88.00
13332;DHT22;6735;51.456;12.626;2022-08-20T06:13:39;20.30;88.00
13332;DHT22;6735;51.456;12.626;2022-08-20T06:16:05;20.40;87.90
13332;DHT22;6735;51.456;12.626;2022-08-20T06:18:30;20.40;87.90
13332;DHT22;6735;51.456;12.626;2022-08-20T06:20:56;20.40;87.70
13332;DHT22;6735;51.456;12.626;2022-08-20T06:23:21;20.40;87.60
13332;DHT22;6735;51.456;12.626;2022-08-20T06:25:49;20.40;87.70
13332;DHT22;6735;51.456;12.626;2022-08-20T06:28:15;20.40;87.80
13332;DHT22;6735;51.456;12.626;2022-08-20T06:30:41;20.50;87.70
13332;DHT22;6735;51.456;12.626;2022-08-20T06:33:06;20.50;87.60
13332;DHT22;6735;51.456;12.626;2022-08-20T06:35:32;20.60;87.60
13332;DHT22;6735;51.456;12.626;2022-08-20T06:37:58;20.60;87.60
13332;DHT22;6735;51.456;12.626;2022-08-20T06:40:27;20.70;87.40
13332;DHT22;6735;51.456;12.626;2022-08-20T06:42:54;20.70;87.20
13332;DHT22;6735;51.456;12.626;2022-08-20T06:45:23;20.70;87.10
13332;DHT22;6735;51.456;12.626;2022-08-20T06:47:50;20.70;87.20
13332;DHT22;6735;51.456;12.626;2022-08-20T06:50:20;20.80;87.20
13332;DHT22;6735;51.456;12.626;2022-08-20T06:52:46;20.90;87.10
13332;DHT22;6735;51.456;12.626;2022-08-20T06:55:13;21.00;86.90
13332;DHT22;6735;51.456;12.626;2022-08-20T06:57:39;21.00;86.90
13332;DHT22;6735;51.456;12.626;2022-08-20T07:00:08;21.10;86.80
13332;DHT22;6735;51.456;12.626;2022-08-20T07:02:34;21.10;86.60
13332;DHT22;6735;51.456;12.626;2022-08-20T07:05:01;21.10;86.80
13332;DHT22;6735;51.456;12.626;2022-08-20T07:07:26;21.10;86.60
13332;DHT22;6735;51.456;12.626;2022-08-20T07:10:03;21.20;86.60
13332;DHT22;6735;51.456;12.626;2022-08-20T07:12:29;21.20;86.70
13332;DHT22;6735;51.456;12.626;2022-08-20T07:14:54;21.20;86.50
13332;DHT22;6735;51.456;12.626;2022-08-20T07:17:20;21.20;86.40
13332;DHT22;6735;51.456;12.626;2022-08-20T07:19:45;21.20;86.60
13332;DHT22;6735;51.456;12.626;2022-08-20T07:22:11;21.20;86.60
13332;DHT22;6735;51.456;12.626;2022-08-20T07:24:39;21.20;86.40
13332;DHT22;6735;51.456;12.626;2022-08-20T07:27:05;21.20;86.20
13332;DHT22;6735;51.456;12.626;2022-08-20T07:29:30;21.20;86.50
13332;DHT22;6735;51.456;12.626;2022-08-20T07:32:16;21.20;86.40
13332;DHT22;6735;51.456;12.626;2022-08-20T07:35:06;21.20;86.20
13332;DHT22;6735;51.456;12.626;2022-08-20T07:37:37;21.20;86.30
13332;DHT22;6735;51.456;12.626;2022-08-20T07:40:04;21.40;86.30
13332;DHT22;6735;51.456;12.626;2022-08-20T07:42:30;21.40;86.10
13332;DHT22;6735;51.456;12.626;2022-08-20T07:44:56;21.50;86.10
13332;DHT22;6735;51.456;12.626;2022-08-20T07:47:21;21.60;85.80
13332;DHT22;6735;51.456;12.626;2022-08-20T07:49:47;21.60;85.90
13332;DHT22;6735;51.456;12.626;2022-08-20T07:52:12;21.60;85.70
13332;DHT22;6735;51.456;12.626;2022-08-20T07:54:38;21.70;85.70
13332;DHT22;6735;51.456;12.626;2022-08-20T07:57:04;21.70;85.40
13332;DHT22;6735;51.456;12.626;2022-08-20T07:59:30;21.80;85.40
13332;DHT22;6735;51.456;12.626;2022-08-20T08:01:55;21.80;85.40
13332;DHT22;6735;51.456;12.626;2022-08-20T08:04:21;21.90;85.20
13332;DHT22;6735;51.456;12.626;2022-08-20T08:06:49;22.00;85.00
13332;DHT22;6735;51.456;12.626;2022-08-20T08:09:15;22.00;84.90
13332;DHT22;6735;51.456;12.626;2022-08-20T08:11:47;22.10;84.50
13332;DHT22;6735;51.456;12.626;2022-08-20T08:14:22;22.10;84.80
13332;DHT22;6735;51.456;12.626;2022-08-20T08:16:53;22.20;84.70
13332;DHT22;6735;51.456;12.626;2022-08-20T08:19:19;22.20;84.50
13332;DHT22;6735;51.456;12.626;2022-08-20T08:21:45;22.20;84.30
13332;DHT22;6735;51.456;12.626;2022-08-20T08:24:11;22.20;84.10
13332;DHT22;6735;51.456;12.626;2022-08-20T08:26:36;22.30;84.00
13332;DHT22;6735;51.456;12.626;2022-08-20T08:29:02;22.40;83.90
13332;DHT22;6735;51.456;12.626;2022-08-20T08:31:32;22.40;83.70
13332;DHT22;6735;51.456;12.626;2022-08-20T08:33:57;22.40;83.60
13332;DHT22;6735;51.456;12.626;2022-08-20T08:36:23;22.40;83.50
13332;DHT22;6735;51.456;12.626;2022-08-20T08:38:52;22.40;83.50
13332;DHT22;6735;51.456;12.626;2022-08-20T08:41:23;22.40;83.60
13332;DHT22;6735;51.456;12.626;2022-08-20T08:43:52;22.40;83.50
13332;DHT22;6735;51.456;12.626;2022-08-20T08:46:22;22.50;83.50
13332;DHT22;6735;51.456;12.626;2022-08-20T08:48:50;22.50;83.10
13332;DHT22;6735;51.456;12.626;2022-08-20T08:51:23;22.50;83.20
13332;DHT22;6735;51.456;12.626;2022-08-20T08:53:52;22.60;82.90
13332;DHT22;6735;51.456;12.626;2022-08-20T08:56:19;22.60;82.90
13332;DHT22;6735;51.456;12.626;2022-08-20T08:58:47;22.70;82.60
13332;DHT22;6735;51.456;12.626;2022-08-20T09:01:17;22.70;82.30
13332;DHT22;6735;51.456;12.626;2022-08-20T09:03:45;22.80;82.30
13332;DHT22;6735;51.456;12.626;2022-08-20T09:06:14;22.90;82.10
13332;DHT22;6735;51.456;12.626;2022-08-20T09:08:51;22.90;82.10
13332;DHT22;6735;51.456;12.626;2022-08-20T09:11:20;23.00;81.90
13332;DHT22;6735;51.456;12.626;2022-08-20T09:13:45;23.00;81.70
13332;DHT22;6735;51.456;12.626;2022-08-20T09:16:12;23.00;81.70
13332;DHT22;6735;51.456;12.626;2022-08-20T09:18:38;23.00;81.60
13332;DHT22;6735;51.456;12.626;2022-08-20T09:21:03;23.00;81.80
13332;DHT22;6735;51.456;12.626;2022-08-20T09:23:29;23.10;81.80
13332;DHT22;6735;51.456;12.626;2022-08-20T09:25:54;23.20;81.60
13332;DHT22;6735;51.456;12.626;2022-08-20T09:28:20;23.30;81.50
13332;DHT22;6735;51.456;12.626;2022-08-20T09:30:45;23.30;81.20
13332;DHT22;6735;51.456;12.626;2022-08-20T09:33:11;23.40;80.40
13332;DHT22;6735;51.456;12.626;2022-08-20T09:35:36;23.40;80.90
13332;DHT22;6735;51.456;12.626;2022-08-20T09:38:02;23.50;80.50
13332;DHT22;6735;51.456;12.626;2022-08-20T09:40:28;23.60;80.80
13332;DHT22;6735;51.456;12.626;2022-08-20T09:42:53;23.50;80.50
13332;DHT22;6735;51.456;12.626;2022-08-20T09:45:19;23.70;80.60
13332;DHT22;6735;51.456;12.626;2022-08-20T09:47:45;23.50;80.70
13332;DHT22;6735;51.456;12.626;2022-08-20T09:50:10;23.60;80.60
13332;DHT22;6735;51.456;12.626;2022-08-20T09:52:45;23.70;80.20
13332;DHT22;6735;51.456;12.626;2022-08-20T09:55:25;23.80;79.90
13332;DHT22;6735;51.456;12.626;2022-08-20T09:57:52;23.70;79.90
13332;DHT22;6735;51.456;12.626;2022-08-20T10:00:18;23.70;79.90
13332;DHT22;6735;51.456;12.626;2022-08-20T10:02:45;23.70;79.80
13332;DHT22;6735;51.456;12.626;2022-08-20T10:05:11;23.60;80.00
13332;DHT22;6735;51.456;12.626;2022-08-20T10:07:37;23.50;79.70
13332;DHT22;6735;51.456;12.626;2022-08-20T10:10:04;23.40;80.00
13332;DHT22;6735;51.456;12.626;2022-08-20T10:12:30;23.40;80.20
13332;DHT22;6735;51.456;12.626;2022-08-20T10:14:56;23.40;80.20
13332;DHT22;6735;51.456;12.626;2022-08-20T10:17:21;23.40;80.20
13332;DHT22;6735;51.456;12.626;2022-08-20T10:19:47;23.30;80.30
13332;DHT22;6735;51.456;12.626;2022-08-20T10:22:12;23.30;80.10
13332;DHT22;6735;51.456;12.626;2022-08-20T10:24:38;23.30;79.90
13332;DHT22;6735;51.456;12.626;2022-08-20T10:27:03;23.40;79.80
13332;DHT22;6735;51.456;12.626;2022-08-20T10:29:30;23.40;79.90
13332;DHT22;6735;51.456;12.626;2022-08-20T10:31:56;23.40;79.90
13332;DHT22;6735;51.456;12.626;2022-08-20T10:34:23;23.50;79.70
13332;DHT22;6735;51.456;12.626;2022-08-20T10:36:48;23.60;79.70
13332;DHT22;6735;51.456;12.626;2022-08-20T10:39:14;23.60;79.30
13332;DHT22;6735;51.456;12.626;2022-08-20T10:41:40;23.60;79.40
13332;DHT22;6735;51.456;12.626;2022-08-20T10:44:06;23.50;79.40
13332;DHT22;6735;51.456;12.626;2022-08-20T10:46:32;23.50;79.20
13332;DHT22;6735;51.456;12.626;2022-08-20T10:48:57;23.40;79.20
13332;DHT22;6735;51.456;12.626;2022-08-20T10:51:23;23.40;79.40
13332;DHT22;6735;51.456;12.626;2022-08-20T10:53:48;23.40;79.30
13332;DHT22;6735;51.456;12.626;2022-08-20T10:56:14;23.30;79.50
13332;DHT22;6735;51.456;12.626;2022-08-20T10:58:39;23.20;79.40
13332;DHT22;6735;51.456;12.626;2022-08-20T11:01:05;23.20;79.60
13332;DHT22;6735;51.456;12.626;2022-08-20T11:03:30;23.20;79.70
13332;DHT22;6735;51.456;12.626;2022-08-20T11:05:56;23.20;79.90
13332;DHT22;6735;51.456;12.626;2022-08-20T11:08:22;23.20;79.70
13332;DHT22;6735;51.456;12.626;2022-08-20T11:10:47;23.20;79.60
13332;DHT22;6735;51.456;12.626;2022-08-20T11:13:13;23.30;79.50
13332;DHT22;6735;51.456;12.626;2022-08-20T11:15:41;23.40;79.40
13332;DHT22;6735;51.456;12.626;2022-08-20T11:18:08;23.40;79.50
13332;DHT22;6735;51.456;12.626;2022-08-20T11:20:34;23.50;79.60
13332;DHT22;6735;51.456;12.626;2022-08-20T11:23:00;23.50;79.70
13332;DHT22;6735;51.456;12.626;2022-08-20T11:25:27;23.50;79.40
13332;DHT22;6735;51.456;12.626;2022-08-20T11:27:53;23.50;79.60
13332;DHT22;6735;51.456;12.626;2022-08-20T11:30:25;23.50;79.60
13332;DHT22;6735;51.456;12.626;2022-08-20T11:32:52;23.60;79.50
13332;DHT22;6735;51.456;12.626;2022-08-20T11:35:18;23.60;79.70
13332;DHT22;6735;51.456;12.626;2022-08-20T11:37:46;23.60;79.60
13332;DHT22;6735;51.456;12.626;2022-08-20T11:40:11;23.70;79.50
13332;DHT22;6735;51.456;12.626;2022-08-20T11:42:37;23.60;79.60
13332;DHT22;6735;51.456;12.626;2022-08-20T11:45:04;23.50;79.70
13332;DHT22;6735;51.456;12.626;2022-08-20T11:47:30;23.50;79.70
13332;DHT22;6735;51.456;12.626;2022-08-20T11:50:05;23.50;79.80
13332;DHT22;6735;51.456;12.626;2022-08-20T11:52:31;23.50;79.90
13332;DHT22;6735;51.456;12.626;2022-08-20T11:54:57;23.50;80.00
13332;DHT22;6735;51.456;12.626;2022-08-20T11:57:28;23.50;79.80
13332;DHT22;6735;51.456;12.626;2022-08-20T11:59:56;23.50;79.50
13332;DHT22;6735;51.456;12.626;2022-08-20T12:02:21;23.40;79.90
13332;DHT22;6735;51.456;12.626;2022-08-20T12:04:47;23.40;79.80
13332;DHT22;6735;51.456;12.626;2022-08-20T12:07:16;23.30;80.30
13332;DHT22;6735;51.456;12.626;2022-08-20T12:09:43;23.40;80.20
13332;DHT22;6735;51.456;12.626;2022-08-20T12:12:09;23.50;80.10
13332;DHT22;6735;51.456;12.626;2022-08-20T12:14:34;23.60;79.80
13332;DHT22;6735;51.456;12.626;2022-08-20T12:17:13;23.70;79.70
13332;DHT22;6735;51.456;12.626;2022-08-20T12:19:40;24.00;78.90
13332;DHT22;6735;51.456;12.626;2022-08-20T12:22:07;24.00;79.20
13332;DHT22;6735;51.456;12.626;2022-08-20T12:24:33;24.10;79.00
13332;DHT22;6735;51.456;12.626;2022-08-20T12:27:09;24.20;78.90
13332;DHT22;6735;51.456;12.626;2022-08-20T12:29:36;24.30;77.60
13332;DHT22;6735;51.456;12.626;2022-08-20T12:32:02;24.40;77.80
13332;DHT22;6735;51.456;12.626;2022-08-20T12:34:29;24.30;77.50
13332;DHT22;6735;51.456;12.626;2022-08-20T12:37:01;24.10;77.10
13332;DHT22;6735;51.456;12.626;2022-08-20T12:39:32;24.00;76.70
13332;DHT22;6735;51.456;12.626;2022-08-20T12:42:00;24.00;77.10
13332;DHT22;6735;51.456;12.626;2022-08-20T12:44:28;24.00;76.10
13332;DHT22;6735;51.456;12.626;2022-08-20T12:49:36;24.00;75.90
13332;DHT22;6735;51.456;12.626;2022-08-20T12:52:02;24.00;75.80
13332;DHT22;6735;51.456;12.626;2022-08-20T12:54:28;24.00;75.20
13332;DHT22;6735;51.456;12.626;2022-08-20T12:56:54;24.10;75.50
13332;DHT22;6735;51.456;12.626;2022-08-20T12:59:22;24.10;75.00
13332;DHT22;6735;51.456;12.626;2022-08-20T13:01:47;24.10;74.90
13332;DHT22;6735;51.456;12.626;2022-08-20T13:04:13;24.00;74.30
13332;DHT22;6735;51.456;12.626;2022-08-20T13:06:38;24.00;74.10
13332;DHT22;6735;51.456;12.626;2022-08-20T13:09:04;24.00;74.30
13332;DHT22;6735;51.456;12.626;2022-08-20T13:11:29;24.10;74.30
13332;DHT22;6735;51.456;12.626;2022-08-20T13:13:55;24.00;74.00
13332;DHT22;6735;51.456;12.626;2022-08-20T13:16:20;24.10;74.10
13332;DHT22;6735;51.456;12.626;2022-08-20T13:18:46;24.00;73.90
13332;DHT22;6735;51.456;12.626;2022-08-20T13:21:11;24.00;74.00
13332;DHT22;6735;51.456;12.626;2022-08-20T13:23:37;23.90;74.20
13332;DHT22;6735;51.456;12.626;2022-08-20T13:26:02;23.90;74.30
13332;DHT22;6735;51.456;12.626;2022-08-20T13:28:29;23.80;74.10
13332;DHT22;6735;51.456;12.626;2022-08-20T13:30:55;23.70;74.30
13332;DHT22;6735;51.456;12.626;2022-08-20T13:33:20;23.70;74.80
13332;DHT22;6735;51.456;12.626;2022-08-20T13:35:46;23.60;74.90
13332;DHT22;6735;51.456;12.626;2022-08-20T13:38:12;23.60;75.20
13332;DHT22;6735;51.456;12.626;2022-08-20T13:40:37;23.60;75.50
13332;DHT22;6735;51.456;12.626;2022-08-20T13:43:03;23.50;75.20
13332;DHT22;6735;51.456;12.626;2022-08-20T13:45:29;23.60;75.50
13332;DHT22;6735;51.456;12.626;2022-08-20T13:47:54;23.50;75.20
13332;DHT22;6735;51.456;12.626;2022-08-20T13:50:22;23.50;75.60
13332;DHT22;6735;51.456;12.626;2022-08-20T13:52:48;23.40;75.60
13332;DHT22;6735;51.456;12.626;2022-08-20T13:55:16;23.40;75.60
13332;DHT22;6735;51.456;12.626;2022-08-20T13:57:43;23.30;75.70
13332;DHT22;6735;51.456;12.626;2022-08-20T14:00:13;23.20;75.20
13332;DHT22;6735;51.456;12.626;2022-08-20T14:02:40;23.20;75.50
13332;DHT22;6735;51.456;12.626;2022-08-20T14:05:06;23.20;75.90
13332;DHT22;6735;51.456;12.626;2022-08-20T14:07:32;23.20;75.90
13332;DHT22;6735;51.456;12.626;2022-08-20T14:10:05;23.30;75.50
13332;DHT22;6735;51.456;12.626;2022-08-20T14:12:30;23.20;75.60
13332;DHT22;6735;51.456;12.626;2022-08-20T14:14:56;23.30;76.20
13332;DHT22;6735;51.456;12.626;2022-08-20T14:17:30;23.30;76.50
13332;DHT22;6735;51.456;12.626;2022-08-20T14:20:05;23.40;76.10
13332;DHT22;6735;51.456;12.626;2022-08-20T14:22:32;23.40;76.20
13332;DHT22;6735;51.456;12.626;2022-08-20T14:24:57;23.40;75.90
13332;DHT22;6735;51.456;12.626;2022-08-20T14:27:27;23.40;76.00
13332;DHT22;6735;51.456;12.626;2022-08-20T14:29:52;23.40;76.00
13332;DHT22;6735;51.456;12.626;2022-08-20T14:32:18;23.50;76.00
13332;DHT22;6735;51.456;12.626;2022-08-20T14:34:43;23.50;76.20
13332;DHT22;6735;51.456;12.626;2022-08-20T14:37:18;23.50;75.70
13332;DHT22;6735;51.456;12.626;2022-08-20T14:39:47;23.60;75.40
13332;DHT22;6735;51.456;12.626;2022-08-20T14:42:13;23.50;75.90
13332;DHT22;6735;51.456;12.626;2022-08-20T14:44:39;23.50;76.20
13332;DHT22;6735;51.456;12.626;2022-08-20T14:47:13;23.50;76.60
13332;DHT22;6735;51.456;12.626;2022-08-20T14:49:40;23.50;77.40
13332;DHT22;6735;51.456;12.626;2022-08-20T14:52:05;23.50;76.80
13332;DHT22;6735;51.456;12.626;2022-08-20T14:54:31;23.40;76.40
13332;DHT22;6735;51.456;12.626;2022-08-20T14:56:57;23.40;76.10
13332;DHT22;6735;51.456;12.626;2022-08-20T14:59:23;23.40;76.80
13332;DHT22;6735;51.456;12.626;2022-08-20T15:01:48;23.40;76.60
13332;DHT22;6735;51.456;12.626;2022-08-20T15:04:14;23.40;76.30
13332;DHT22;6735;51.456;12.626;2022-08-20T15:06:39;23.30;76.30
13332;DHT22;6735;51.456;12.626;2022-08-20T15:09:05;23.30;76.90
13332;DHT22;6735;51.456;12.626;2022-08-20T15:11:30;23.20;77.30
13332;DHT22;6735;51.456;12.626;2022-08-20T15:13:56;23.20;77.50
13332;DHT22;6735;51.456;12.626;2022-08-20T15:16:21;23.10;77.20
13332;DHT22;6735;51.456;12.626;2022-08-20T15:18:47;23.10;76.60
13332;DHT22;6735;51.456;12.626;2022-08-20T15:21:12;23.00;77.10
13332;DHT22;6735;51.456;12.626;2022-08-20T15:23:38;23.00;77.10
13332;DHT22;6735;51.456;12.626;2022-08-20T15:26:04;23.00;77.20
13332;DHT22;6735;51.456;12.626;2022-08-20T15:28:31;23.00;77.10
13332;DHT22;6735;51.456;12.626;2022-08-20T15:30:56;23.00;77.10
13332;DHT22;6735;51.456;12.626;2022-08-20T15:33:22;23.00;77.10
13332;DHT22;6735;51.456;12.626;2022-08-20T15:35:47;23.00;77.10
13332;DHT22;6735;51.456;12.626;2022-08-20T15:38:13;23.00;77.40